Time;durP1;ratioP1;P1;durP2;ratioP2;P2;SDS_P1;SDS_P2;PMS_P1;PMS_P2;Temp;Humidity;BMP_temperature;BMP_pressure;BME280_temperature;BME280_humidity;BME280_pressure;Samples;Min_cycle;Max_cycle;Signal;HPM_P1;HPM_P2
2021/08/18 00:02:04;;;;;;;10.17;9.47;;;;;;;13.97;86.90;100123.59;5035080;28;20262;-77
2021/08/18 00:04:32;;;;;;;9.47;8.77;;;;;;;14.04;86.81;100122.47;5046283;28;20251;-78
2021/08/18 00:06:59;;;;;;;9.87;9.17;;;;;;;14.14;86.50;100131.69;5048289;28;20208;-78
2021/08/18 00:09:25;;;;;;;10.57;9.77;;;;;;;13.97;86.62;100131.47;5038303;28;20203;-77
2021/08/18 00:11:52;;;;;;;9.83;9.13;;;;;;;14.04;86.66;100123.31;5035646;28;20208;-77
2021/08/18 00:14:18;;;;;;;9.83;9.03;;;;;;;14.07;86.92;100122.34;5035949;28;20288;-77
2021/08/18 00:16:46;;;;;;;9.97;9.27;;;;;;;13.94;87.29;100113.25;5036497;28;20295;-76
2021/08/18 00:19:13;;;;;;;9.83;9.13;;;;;;;14.02;87.63;100100.69;5035835;28;20211;-78
2021/08/18 00:21:42;;;;;;;11.43;10.60;;;;;;;14.02;87.94;100109.41;5043832;28;20204;-77
2021/08/18 00:24:08;;;;;;;9.57;8.87;;;;;;;14.05;88.07;100085.69;5051076;28;20709;-78
2021/08/18 00:26:34;;;;;;;9.83;9.13;;;;;;;14.03;88.96;100063.00;5035814;28;20204;-78
2021/08/18 00:29:03;;;;;;;9.63;8.83;;;;;;;14.16;87.91;100084.41;5041097;28;20200;-77
2021/08/18 00:31:30;;;;;;;9.80;9.10;;;;;;;14.14;88.33;100083.59;5056037;28;20228;-76
2021/08/18 00:33:56;;;;;;;10.43;9.63;;;;;;;14.22;87.97;100099.91;5054464;28;20682;-78
2021/08/18 00:36:22;;;;;;;10.00;9.17;;;;;;;14.16;87.84;100094.91;5055464;28;20222;-76
2021/08/18 00:38:50;;;;;;;10.20;9.43;;;;;;;14.28;87.44;100103.13;5048788;28;20255;-76
2021/08/18 00:41:17;;;;;;;10.20;9.40;;;;;;;14.29;87.19;100117.97;5035842;28;20231;-78
2021/08/18 00:43:44;;;;;;;9.73;9.03;;;;;;;14.27;87.58;100108.44;5035543;28;20227;-77
2021/08/18 00:46:11;;;;;;;14.33;9.80;;;;;;;14.28;87.82;100095.25;5046331;28;20199;-78
2021/08/18 00:48:38;;;;;;;9.83;9.03;;;;;;;14.31;88.05;100089.03;5056098;28;20219;-78
2021/08/18 00:51:04;;;;;;;9.47;8.70;;;;;;;14.29;88.43;100072.47;5056004;28;20218;-78
2021/08/18 00:53:31;;;;;;;9.93;9.23;;;;;;;14.29;88.67;100067.22;5055304;28;20228;-78
2021/08/18 00:55:58;;;;;;;9.10;8.40;;;;;;;14.33;88.44;100063.56;5053810;28;20868;-78
2021/08/18 00:58:25;;;;;;;9.10;8.40;;;;;;;14.24;89.38;100049.03;5055684;28;20289;-78
2021/08/18 01:00:51;;;;;;;9.63;8.93;;;;;;;14.09;89.72;100036.50;5055002;28;20212;-78
2021/08/18 01:03:18;;;;;;;9.27;8.57;;;;;;;14.17;89.76;100010.84;5055069;28;20231;-78
2021/08/18 01:05:44;;;;;;;10.13;9.03;;;;;;;14.24;90.21;100011.44;5055508;28;20210;-78
2021/08/18 01:08:11;;;;;;;10.03;9.03;;;;;;;14.20;90.41;100002.81;5056157;28;20242;-76
2021/08/18 01:10:37;;;;;;;10.00;9.10;;;;;;;14.20;90.34;100010.69;5055451;28;20255;-77
2021/08/18 01:13:06;;;;;;;8.83;8.13;;;;;;;14.19;90.50;100001.13;5054503;28;20228;-78
2021/08/18 01:15:34;;;;;;;9.30;8.50;;;;;;;14.26;90.02;100005.19;5054706;28;20227;-78
2021/08/18 01:18:02;;;;;;;9.30;8.50;;;;;;;14.35;89.70;100018.84;5053856;28;20685;-78
2021/08/18 01:20:31;;;;;;;8.87;8.17;;;;;;;14.29;90.08;100017.34;5055402;28;20212;-78
2021/08/18 01:22:59;;;;;;;8.77;8.10;;;;;;;14.15;90.98;99993.44;5055150;28;20207;-78
2021/08/18 01:25:26;;;;;;;8.47;7.77;;;;;;;14.20;90.75;99979.19;5055752;28;20299;-77
2021/08/18 01:27:55;;;;;;;8.37;7.67;;;;;;;14.29;90.61;99993.69;5055330;28;20260;-78
2021/08/18 01:30:25;;;;;;;8.30;7.70;;;;;;;14.38;90.25;100006.47;5054168;28;20215;-78
2021/08/18 01:32:55;;;;;;;9.53;8.73;;;;;;;14.23;90.68;99996.59;5054614;28;20203;-78
2021/08/18 01:35:24;;;;;;;8.03;7.43;;;;;;;14.28;90.38;99990.22;5055499;28;20641;-78
2021/08/18 01:37:51;;;;;;;7.87;7.13;;;;;;;14.37;90.05;99993.38;5054818;28;20298;-78
2021/08/18 01:40:18;;;;;;;8.23;7.53;;;;;;;14.39;89.96;100009.94;5055342;28;20213;-78
2021/08/18 01:42:45;;;;;;;7.47;6.87;;;;;;;14.39;89.57;100010.81;5054829;28;20216;-77
2021/08/18 01:45:20;;;;;;;7.47;6.77;;;;;;;14.42;89.95;100004.56;5054123;28;20207;-78
2021/08/18 01:47:47;;;;;;;6.83;6.23;;;;;;;14.46;89.48;100014.88;5055160;28;20205;-78
2021/08/18 01:50:14;;;;;;;7.30;6.60;;;;;;;14.43;89.90;100015.00;5036262;28;20204;-78
2021/08/18 01:52:41;;;;;;;7.43;6.73;;;;;;;14.14;90.94;99995.19;5034461;28;20208;-78
2021/08/18 01:55:08;;;;;;;8.13;7.47;;;;;;;14.09;91.46;99958.66;5034756;28;20211;-78
2021/08/18 01:57:35;;;;;;;7.67;7.07;;;;;;;14.14;91.58;99957.63;5034567;28;20612;-78
2021/08/18 02:00:01;;;;;;;6.77;6.00;;;;;;;14.19;91.70;99960.88;5035483;28;20576;-78
2021/08/18 02:02:28;;;;;;;6.20;5.70;;;;;;;14.24;92.10;99944.03;5034433;28;20218;-78
2021/08/18 02:04:57;;;;;;;8.00;7.23;;;;;;;14.25;92.26;99948.38;5046056;28;20220;-78
2021/08/18 02:07:23;;;;;;;6.47;5.90;;;;;;;14.27;91.72;99959.66;5055898;28;20231;-78
2021/08/18 02:09:50;;;;;;;7.67;6.97;;;;;;;14.04;93.22;99925.63;5055096;28;20217;-76
2021/08/18 02:12:16;;;;;;;7.10;6.50;;;;;;;14.16;93.39;99913.78;5054696;28;20639;-77
2021/08/18 02:14:44;;;;;;;7.43;6.83;;;;;;;14.16;93.46;99909.38;5055364;28;20285;-77
2021/08/18 02:17:10;;;;;;;7.03;6.43;;;;;;;14.21;93.62;99911.78;5040357;28;20220;-76
2021/08/18 02:19:37;;;;;;;7.40;6.80;;;;;;;14.27;92.26;99941.28;5039349;28;20205;-77
2021/08/18 02:22:05;;;;;;;6.27;5.73;;;;;;;14.34;92.07;99949.75;5038284;28;20208;-78
2021/08/18 02:24:32;;;;;;;7.67;6.57;;;;;;;14.34;92.16;99951.53;5045717;28;20284;-77
2021/08/18 02:26:58;;;;;;;6.30;5.77;;;;;;;14.38;92.20;99948.69;5058869;28;20206;-78
2021/08/18 02:29:25;;;;;;;6.27;5.70;;;;;;;14.43;91.95;99954.63;5058492;28;20211;-78
2021/08/18 02:31:51;;;;;;;6.43;5.93;;;;;;;14.40;92.47;99943.38;5057742;28;20217;-78
2021/08/18 02:34:19;;;;;;;6.13;5.53;;;;;;;14.39;92.42;99952.16;5056455;28;20755;-78
2021/08/18 02:36:46;;;;;;;5.87;5.37;;;;;;;14.46;91.85;99964.13;5057630;28;20639;-78
2021/08/18 02:39:13;;;;;;;6.07;5.57;;;;;;;14.33;92.62;99931.41;5058581;28;20255;-77
2021/08/18 02:41:40;;;;;;;5.93;5.53;;;;;;;14.37;92.86;99940.88;5057730;28;20634;-78
2021/08/18 02:44:06;;;;;;;5.63;5.23;;;;;;;14.39;92.74;99933.78;5057728;28;20560;-78
2021/08/18 02:46:33;;;;;;;6.50;5.90;;;;;;;14.44;92.76;99942.31;5057734;28;20732;-78
2021/08/18 02:48:59;;;;;;;6.60;5.97;;;;;;;14.38;92.77;99950.47;5043968;28;20530;-77
2021/08/18 02:51:26;;;;;;;6.33;5.87;;;;;;;14.40;92.89;99938.13;5037745;28;20267;-76
2021/08/18 02:53:52;;;;;;;5.83;5.33;;;;;;;14.31;93.41;99931.50;5037193;28;20228;-76
2021/08/18 02:56:20;;;;;;;5.87;5.37;;;;;;;14.35;93.10;99927.84;5038170;28;20643;-77
2021/08/18 02:58:46;;;;;;;6.17;5.67;;;;;;;14.41;92.62;99942.44;5037848;28;20208;-78
2021/08/18 03:01:13;;;;;;;5.80;5.30;;;;;;;14.45;92.68;99955.41;5037188;28;20231;-77
2021/08/18 03:03:39;;;;;;;7.20;6.60;;;;;;;14.43;92.84;99941.47;5039115;28;20703;-77
2021/08/18 03:06:06;;;;;;;5.63;5.20;;;;;;;14.53;92.47;99949.81;5057843;28;20227;-77
2021/08/18 03:08:32;;;;;;;6.10;5.60;;;;;;;14.57;92.34;99961.06;5057845;28;20212;-76
2021/08/18 03:10:58;;;;;;;5.50;5.10;;;;;;;14.58;91.96;99970.66;5057862;28;20622;-78
2021/08/18 03:13:27;;;;;;;7.93;6.20;;;;;;;14.57;91.94;99975.06;5056803;28;20224;-79
2021/08/18 03:15:53;;;;;;;6.20;5.70;;;;;;;14.47;92.80;99953.56;5057312;28;20226;-78
2021/08/18 03:18:20;;;;;;;6.47;5.87;;;;;;;14.43;93.21;99946.72;5057129;28;20255;-78
2021/08/18 03:20:46;;;;;;;7.53;6.90;;;;;;;14.35;93.51;99933.09;5057699;28;20257;-78
2021/08/18 03:23:13;;;;;;;7.00;6.40;;;;;;;14.21;94.34;99903.91;5057388;28;20229;-78
2021/08/18 03:25:39;;;;;;;6.47;5.87;;;;;;;14.20;94.53;99897.81;5057599;28;20211;-77
2021/08/18 03:28:06;;;;;;;7.27;6.53;;;;;;;14.28;94.07;99910.63;5056457;28;20889;-77
2021/08/18 03:30:33;;;;;;;7.10;6.50;;;;;;;14.25;94.35;99905.50;5056029;28;20204;-76
2021/08/18 03:33:00;;;;;;;5.93;5.43;;;;;;;14.31;94.50;99905.25;5053457;28;20209;-76
2021/08/18 03:35:26;;;;;;;6.87;6.27;;;;;;;14.34;94.11;99912.13;5056249;28;20326;-76
2021/08/18 03:37:53;;;;;;;6.53;5.93;;;;;;;14.37;94.07;99902.38;5040919;28;20205;-77
2021/08/18 03:40:19;;;;;;;6.70;6.10;;;;;;;14.42;93.74;99920.53;5036481;28;20210;-77
2021/08/18 03:42:46;;;;;;;7.00;6.40;;;;;;;14.35;94.06;99916.44;5035199;28;20227;-77
2021/08/18 03:45:13;;;;;;;6.03;5.53;;;;;;;14.42;93.92;99917.91;5035587;28;20211;-76
2021/08/18 03:47:41;;;;;;;5.70;5.30;;;;;;;14.44;93.55;99913.44;5035834;28;20621;-77
2021/08/18 03:50:09;;;;;;;6.27;5.47;;;;;;;14.48;93.27;99933.41;5040813;28;20558;-77
2021/08/18 03:52:38;;;;;;;6.13;5.53;;;;;;;14.54;93.13;99934.91;5055560;28;20215;-77
2021/08/18 03:55:06;;;;;;;6.10;5.50;;;;;;;14.53;93.07;99936.69;5055455;28;20255;-77
2021/08/18 03:57:32;;;;;;;6.80;5.33;;;;;;;14.56;92.81;99946.19;5055580;28;20650;-77
2021/08/18 03:59:59;;;;;;;5.67;5.27;;;;;;;14.57;92.79;99940.03;5055814;28;20212;-79
2021/08/18 04:02:26;;;;;;;5.73;5.23;;;;;;;14.57;92.41;99950.53;5054451;28;20290;-77
2021/08/18 04:04:54;;;;;;;6.30;5.80;;;;;;;14.58;92.55;99950.50;5055232;28;20722;-76
2021/08/18 04:07:20;;;;;;;6.90;6.30;;;;;;;14.61;92.51;99949.53;5051930;28;20242;-77
2021/08/18 04:09:47;;;;;;;6.03;5.53;;;;;;;14.65;91.68;99969.47;5035785;28;20623;-78
2021/08/18 04:12:13;;;;;;;6.57;5.97;;;;;;;14.63;91.79;99968.69;5036080;28;20639;-78
2021/08/18 04:14:40;;;;;;;6.50;6.00;;;;;;;14.59;91.80;99960.09;5036484;28;20579;-77
2021/08/18 04:17:06;;;;;;;6.60;6.10;;;;;;;14.63;92.11;99963.44;5035873;28;20707;-78
2021/08/18 04:19:32;;;;;;;6.20;5.70;;;;;;;14.61;91.69;99973.16;5036600;28;20794;-79
2021/08/18 04:22:00;;;;;;;6.67;6.07;;;;;;;14.61;91.37;99976.63;5039488;28;20205;-79
2021/08/18 04:24:27;;;;;;;6.67;6.07;;;;;;;14.64;91.13;99991.41;5050699;28;20266;-77
2021/08/18 04:26:53;;;;;;;6.37;5.87;;;;;;;14.63;91.10;100000.22;5035715;28;20207;-78
2021/08/18 04:29:19;;;;;;;6.20;5.70;;;;;;;14.62;91.50;99990.63;5036846;28;20209;-78
2021/08/18 04:31:46;;;;;;;6.33;5.77;;;;;;;14.65;91.02;99995.75;5035192;28;20209;-78
2021/08/18 04:34:12;;;;;;;5.97;5.57;;;;;;;14.62;91.17;99998.50;5041035;28;20352;-77
2021/08/18 04:36:39;;;;;;;6.87;6.27;;;;;;;14.40;91.69;99985.41;5053843;28;20223;-77
2021/08/18 04:39:07;;;;;;;6.10;5.60;;;;;;;14.37;91.94;99968.00;5035433;28;20207;-78
2021/08/18 04:41:33;;;;;;;6.80;6.20;;;;;;;14.26;92.77;99962.34;5035687;28;20237;-78
2021/08/18 04:44:00;;;;;;;7.47;6.30;;;;;;;14.27;92.30;99958.78;5035260;28;20235;-78
2021/08/18 04:46:27;;;;;;;6.30;5.80;;;;;;;14.23;93.11;99950.22;5035183;28;20253;-77
2021/08/18 04:48:54;;;;;;;7.77;7.13;;;;;;;14.07;93.53;99930.75;5035053;28;20250;-78
2021/08/18 04:51:20;;;;;;;7.33;6.70;;;;;;;14.12;93.68;99912.19;5036239;28;20209;-79
2021/08/18 04:53:46;;;;;;;6.90;6.30;;;;;;;14.24;93.77;99925.66;5036987;28;20221;-78
2021/08/18 04:56:14;;;;;;;6.63;6.13;;;;;;;14.36;92.95;99953.16;5035919;28;20236;-78
2021/08/18 04:58:41;;;;;;;6.87;6.27;;;;;;;14.36;93.10;99953.16;5034966;28;20281;-77
2021/08/18 05:01:07;;;;;;;6.60;6.10;;;;;;;14.29;93.46;99939.44;5034908;28;20573;-78
2021/08/18 05:03:34;;;;;;;6.27;5.77;;;;;;;14.39;93.23;99944.28;5035698;28;20237;-78
2021/08/18 05:06:00;;;;;;;7.13;6.43;;;;;;;14.17;94.30;99923.34;5053403;28;20207;-78
2021/08/18 05:08:27;;;;;;;6.50;6.00;;;;;;;14.21;94.12;99919.66;5055087;28;20683;-77
2021/08/18 05:10:53;;;;;;;8.37;6.37;;;;;;;14.21;93.84;99927.53;5047579;28;20203;-78
2021/08/18 05:13:21;;;;;;;6.57;6.07;;;;;;;14.17;94.17;99923.34;5035023;28;20249;-78
2021/08/18 05:15:47;;;;;;;6.77;6.17;;;;;;;14.25;94.67;99916.88;5036005;28;20204;-77
2021/08/18 05:18:14;;;;;;;6.53;5.93;;;;;;;14.24;94.47;99907.28;5044666;28;20218;-78
2021/08/18 05:20:40;;;;;;;6.63;6.03;;;;;;;14.34;94.22;99912.97;5045979;28;20199;-76
2021/08/18 05:23:07;;;;;;;5.23;4.73;;;;;;;14.41;93.96;99922.31;5042582;28;20225;-77
2021/08/18 05:25:33;;;;;;;6.03;5.53;;;;;;;14.52;93.71;99937.59;5044494;28;20199;-79
2021/08/18 05:28:03;;;;;;;6.50;6.00;;;;;;;14.42;93.39;99958.16;5045215;28;20200;-78
2021/08/18 05:30:32;;;;;;;5.40;5.00;;;;;;;14.40;93.87;99943.38;5042469;28;20197;-78
2021/08/18 05:32:58;;;;;;;6.23;5.73;;;;;;;14.30;94.10;99938.50;5045743;28;20196;-79
2021/08/18 05:35:25;;;;;;;6.17;5.67;;;;;;;14.23;94.60;99915.19;5048160;28;20205;-78
2021/08/18 05:37:51;;;;;;;7.00;6.37;;;;;;;14.26;94.50;99925.59;5046519;28;20225;-77
2021/08/18 05:40:18;;;;;;;7.00;6.40;;;;;;;14.35;94.66;99930.47;5045014;28;20263;-78
2021/08/18 05:42:44;;;;;;;6.67;6.13;;;;;;;14.33;94.06;99948.06;5044992;28;20232;-78
2021/08/18 05:45:11;;;;;;;7.07;6.47;;;;;;;14.21;94.56;99943.28;5045150;28;20200;-77
2021/08/18 05:47:39;;;;;;;6.90;6.30;;;;;;;14.28;93.94;99950.00;5043825;28;20203;-76
2021/08/18 05:50:06;;;;;;;6.93;6.33;;;;;;;14.24;93.77;99962.41;5041572;28;20258;-78
2021/08/18 05:52:33;;;;;;;6.40;5.90;;;;;;;14.31;93.37;99989.28;5045562;28;20564;-78
2021/08/18 05:55:02;;;;;;;6.67;6.17;;;;;;;14.33;92.94;99997.06;5049022;28;20735;-78
2021/08/18 05:57:29;;;;;;;6.83;6.33;;;;;;;14.27;93.31;99995.53;5047321;28;20220;-78
2021/08/18 05:59:56;;;;;;;6.17;5.67;;;;;;;14.37;93.07;99985.50;5047250;28;20204;-77
2021/08/18 06:02:22;;;;;;;6.97;6.37;;;;;;;14.42;92.63;100000.16;5047002;28;20204;-79
2021/08/18 06:04:50;;;;;;;6.63;6.13;;;;;;;14.58;91.59;100026.66;5052599;28;20232;-78
2021/08/18 06:07:17;;;;;;;6.87;6.37;;;;;;;14.63;91.27;100043.09;5049292;28;20200;-77
2021/08/18 06:09:43;;;;;;;6.60;6.17;;;;;;;14.70;91.11;100057.66;5046771;28;20204;-77
2021/08/18 06:12:10;;;;;;;5.97;5.47;;;;;;;14.73;90.75;100076.84;5045232;28;20281;-77
2021/08/18 06:14:36;;;;;;;6.13;5.70;;;;;;;14.78;90.18;100086.25;5044670;28;20776;-77
2021/08/18 06:17:03;;;;;;;6.90;5.70;;;;;;;14.83;89.72;100105.31;5044764;28;20216;-77
2021/08/18 06:19:30;;;;;;;5.50;5.00;;;;;;;14.86;89.89;100097.28;5046188;28;20208;-77
2021/08/18 06:21:59;;;;;;;6.33;5.87;;;;;;;14.86;89.00;100120.09;5043902;28;20663;-76
2021/08/18 06:24:28;;;;;;;6.63;6.03;;;;;;;14.68;89.13;100130.44;5045246;28;20247;-77
2021/08/18 06:26:56;;;;;;;5.63;5.13;;;;;;;14.73;89.47;100118.88;5046700;28;20229;-77
2021/08/18 06:29:23;;;;;;;6.33;5.83;;;;;;;14.70;89.65;100094.44;5045179;28;20209;-77
2021/08/18 06:31:50;;;;;;;7.27;6.67;;;;;;;14.74;89.33;100116.19;5045476;28;20211;-76
2021/08/18 06:34:18;;;;;;;5.63;5.23;;;;;;;14.73;89.06;100132.00;5046951;28;20235;-77
2021/08/18 06:36:44;;;;;;;5.70;5.20;;;;;;;14.73;88.81;100132.91;5046927;28;20257;-77
2021/08/18 06:39:12;;;;;;;6.97;4.77;;;;;;;14.84;88.10;100143.78;5047496;28;20197;-77
2021/08/18 06:41:39;;;;;;;5.20;4.80;;;;;;;14.85;88.40;100135.00;5044182;28;20209;-77
2021/08/18 06:44:05;;;;;;;5.13;4.73;;;;;;;14.95;88.20;100134.63;5045278;28;20265;-77
2021/08/18 06:46:31;;;;;;;5.00;4.70;;;;;;;15.03;87.34;100171.97;5045296;28;20624;-77
2021/08/18 06:48:58;;;;;;;5.13;4.77;;;;;;;15.14;86.85;100193.38;5043674;28;20204;-76
2021/08/18 06:51:24;;;;;;;5.23;4.80;;;;;;;15.24;86.43;100209.63;5046680;28;20227;-77
2021/08/18 06:53:51;;;;;;;4.63;4.33;;;;;;;15.36;85.69;100231.94;5044402;28;20278;-76
2021/08/18 06:56:19;;;;;;;4.80;4.50;;;;;;;15.51;84.66;100254.97;5043339;28;20211;-76
2021/08/18 06:58:45;;;;;;;4.20;3.90;;;;;;;15.48;83.51;100311.19;5045372;28;20710;-76
2021/08/18 07:01:11;;;;;;;4.00;3.70;;;;;;;15.53;83.67;100297.84;5044897;28;20205;-76
2021/08/18 07:03:38;;;;;;;3.87;3.57;;;;;;;15.55;83.45;100321.47;5045285;28;20238;-77
2021/08/18 07:06:04;;;;;;;4.10;3.80;;;;;;;15.46;83.70;100301.63;5044292;28;20232;-77
2021/08/18 07:08:31;;;;;;;4.43;4.00;;;;;;;15.44;83.23;100320.13;5046073;28;20199;-76
2021/08/18 07:10:57;;;;;;;3.70;3.40;;;;;;;15.47;83.47;100316.50;5043575;28;20251;-77
2021/08/18 07:13:25;;;;;;;4.47;3.97;;;;;;;15.38;83.12;100328.28;5045178;28;20228;-77
2021/08/18 07:15:51;;;;;;;4.53;4.03;;;;;;;15.35;83.19;100317.03;5046077;28;20197;-79
2021/08/18 07:18:18;;;;;;;5.00;4.40;;;;;;;15.35;83.24;100311.75;5049856;28;20221;-79
2021/08/18 07:20:44;;;;;;;3.60;3.30;;;;;;;15.39;83.41;100310.72;5047756;28;20243;-78
2021/08/18 07:23:11;;;;;;;4.27;3.87;;;;;;;15.44;82.87;100321.88;5050318;28;20220;-77
2021/08/18 07:25:37;;;;;;;3.83;3.53;;;;;;;15.55;82.37;100337.25;5039254;28;20347;-76
2021/08/18 07:28:04;;;;;;;3.60;3.30;;;;;;;15.50;82.76;100334.81;5034162;28;20683;-77
2021/08/18 07:30:32;;;;;;;3.90;3.60;;;;;;;15.50;83.00;100321.66;5034320;28;20291;-76
2021/08/18 07:32:58;;;;;;;4.00;3.63;;;;;;;15.54;83.04;100312.72;5033711;28;20209;-75
2021/08/18 07:35:25;;;;;;;3.90;3.60;;;;;;;15.67;82.25;100345.47;5051480;28;20253;-78
2021/08/18 07:37:51;;;;;;;3.67;3.40;;;;;;;15.79;81.63;100369.63;5057733;28;20232;-78
2021/08/18 07:40:18;;;;;;;3.20;3.00;;;;;;;15.86;80.58;100392.16;5054845;28;20206;-76
2021/08/18 07:42:44;;;;;;;3.20;2.90;;;;;;;15.85;79.50;100456.22;5052447;28;20274;-75
2021/08/18 07:45:11;;;;;;;3.17;2.87;;;;;;;15.98;80.14;100422.38;5053752;28;20208;-76
2021/08/18 07:47:39;;;;;;;3.50;2.97;;;;;;;16.00;79.08;100449.50;5053064;28;20214;-76
2021/08/18 07:50:07;;;;;;;3.43;3.13;;;;;;;15.99;79.20;100450.38;5053465;28;20209;-76
2021/08/18 07:52:33;;;;;;;2.60;2.40;;;;;;;16.02;78.23;100482.72;5053363;28;20207;-76
2021/08/18 07:55:00;;;;;;;3.07;2.80;;;;;;;16.19;78.77;100452.19;5053038;28;20224;-76
2021/08/18 07:57:26;;;;;;;2.93;2.73;;;;;;;16.34;78.39;100461.25;5053344;28;20577;-76
2021/08/18 07:59:52;;;;;;;2.83;2.63;;;;;;;16.33;77.26;100486.69;5052889;28;20632;-76
2021/08/18 08:02:20;;;;;;;2.20;2.00;;;;;;;16.37;76.89;100519.06;5052933;28;20212;-76
2021/08/18 08:04:48;;;;;;;2.50;2.27;;;;;;;16.40;77.37;100517.16;5048265;28;20261;-76
2021/08/18 08:07:16;;;;;;;2.77;2.40;;;;;;;16.52;77.08;100522.84;5052391;28;20205;-76
2021/08/18 08:09:43;;;;;;;2.20;2.00;;;;;;;16.38;75.76;100558.50;5052599;28;20208;-76
2021/08/18 08:12:10;;;;;;;2.50;2.30;;;;;;;16.35;76.20;100574.47;5053170;28;20212;-76
2021/08/18 08:14:36;;;;;;;4.17;2.63;;;;;;;16.28;76.05;100583.53;5051917;28;20231;-76
2021/08/18 08:17:03;;;;;;;3.10;2.23;;;;;;;16.35;76.41;100550.75;5052546;28;20202;-76
2021/08/18 08:19:30;;;;;;;2.80;2.50;;;;;;;16.33;76.18;100557.84;5052979;28;20217;-76
2021/08/18 08:21:58;;;;;;;2.97;2.67;;;;;;;16.32;76.00;100566.66;5052551;28;20211;-76
2021/08/18 08:24:24;;;;;;;2.47;2.27;;;;;;;16.38;76.20;100555.88;5052703;28;20223;-76
2021/08/18 08:26:51;;;;;;;2.80;2.53;;;;;;;16.26;76.56;100569.56;5052820;28;20273;-76
2021/08/18 08:29:17;;;;;;;2.93;2.73;;;;;;;16.20;75.70;100582.97;5052732;28;20622;-76
2021/08/18 08:31:44;;;;;;;2.90;2.33;;;;;;;16.25;75.62;100594.16;5052415;28;20213;-76
2021/08/18 08:34:11;;;;;;;2.30;2.10;;;;;;;16.29;75.53;100595.75;5047275;28;20227;-76
2021/08/18 08:36:37;;;;;;;2.40;2.20;;;;;;;16.33;75.67;100588.59;5051645;28;20207;-76
2021/08/18 08:39:05;;;;;;;2.20;1.80;;;;;;;16.43;75.67;100587.28;5052494;28;20321;-76
2021/08/18 08:41:33;;;;;;;7.83;2.37;;;;;;;16.57;75.41;100605.19;5052106;28;20562;-76
2021/08/18 08:43:59;;;;;;;2.50;2.30;;;;;;;16.50;74.26;100635.34;5052274;28;20239;-76
2021/08/18 08:46:27;;;;;;;2.60;2.40;;;;;;;16.56;74.14;100643.00;5052094;28;20212;-76
2021/08/18 08:48:55;;;;;;;2.50;2.30;;;;;;;16.60;74.51;100620.88;5051924;28;20231;-76
2021/08/18 08:51:21;;;;;;;3.80;2.10;;;;;;;16.62;75.44;100598.78;5052412;28;20208;-76
2021/08/18 08:53:48;;;;;;;2.63;2.40;;;;;;;16.54;74.69;100624.63;5051680;28;20281;-75
2021/08/18 08:56:16;;;;;;;2.23;1.83;;;;;;;16.57;75.14;100607.81;5052083;28;20215;-76
2021/08/18 08:58:42;;;;;;;2.40;2.20;;;;;;;16.45;75.91;100582.81;5051893;28;20232;-76
2021/08/18 09:01:08;;;;;;;2.87;2.37;;;;;;;16.43;75.55;100579.38;5052009;28;20216;-75
2021/08/18 09:03:36;;;;;;;4.20;2.43;;;;;;;16.53;75.60;100593.03;5046840;28;20229;-76
2021/08/18 09:06:06;;;;;;;2.60;2.40;;;;;;;16.62;75.69;100592.69;5051915;28;20209;-75
2021/08/18 09:08:33;;;;;;;2.30;2.10;;;;;;;16.61;75.58;100598.84;5046447;28;20201;-75
2021/08/18 09:11:10;;;;;;;2.70;2.33;;;;;;;16.75;75.09;100614.09;5045358;28;20685;-75
2021/08/18 09:13:46;;;;;;;2.33;2.13;;;;;;;16.72;73.59;100651.16;5051187;28;20229;-75
2021/08/18 09:16:14;;;;;;;2.60;2.37;;;;;;;16.72;73.96;100649.34;5051674;28;20213;-76
2021/08/18 09:18:44;;;;;;;3.47;2.33;;;;;;;16.84;74.21;100632.22;5051981;28;20225;-76
2021/08/18 09:21:38;;;;;;;2.50;2.30;;;;;;;16.87;74.10;100640.84;5051697;28;20215;-75
2021/08/18 09:24:34;;;;;;;2.27;2.07;;;;;;;16.90;73.94;100660.94;5050396;28;20672;-75
2021/08/18 09:27:08;;;;;;;2.93;2.20;;;;;;;16.90;73.74;100662.75;4990087;28;20199;-76
2021/08/18 09:29:41;;;;;;;2.73;2.37;;;;;;;17.01;73.53;100665.78;5023795;28;20680;-75
2021/08/18 09:32:36;;;;;;;6.27;2.60;;;;;;;16.88;72.95;100674.19;5031322;28;20202;-75
2021/08/18 09:35:07;;;;;;;2.27;2.00;;;;;;;16.92;73.39;100672.28;5013083;28;20268;-76
2021/08/18 09:37:35;;;;;;;7.17;2.73;;;;;;;16.88;73.06;100676.84;5044422;28;20746;-77
2021/08/18 09:40:15;;;;;;;13.00;3.33;;;;;;;17.03;73.98;100640.22;5043977;28;20205;-75
2021/08/18 09:42:41;;;;;;;4.17;2.40;;;;;;;17.02;73.66;100660.44;5038711;28;20210;-75
2021/08/18 09:45:11;;;;;;;2.27;2.07;;;;;;;17.09;73.43;100653.13;5042443;28;20718;-75
2021/08/18 09:47:51;;;;;;;2.73;2.43;;;;;;;17.25;73.38;100664.75;5040507;28;20205;-76
2021/08/18 09:50:18;;;;;;;3.00;2.67;;;;;;;17.37;71.68;100710.84;5040743;28;20710;-76
2021/08/18 09:52:45;;;;;;;4.70;2.17;;;;;;;17.41;70.75;100745.88;4341982;28;10000836;-75
2021/08/18 09:55:12;;;;;;;4.97;2.70;;;;;;;17.43;71.84;100712.38;5039391;28;20201;-76
2021/08/18 09:57:39;;;;;;;2.53;2.33;;;;;;;17.43;71.16;100741.41;5037201;28;20209;-75
2021/08/18 10:00:06;;;;;;;2.03;1.83;;;;;;;17.43;70.21;100762.50;5037466;28;20254;-76
2021/08/18 10:02:35;;;;;;;2.57;1.80;;;;;;;17.30;70.16;100793.81;5038975;28;20197;-76
2021/08/18 10:05:03;;;;;;;13.90;3.50;;;;;;;17.45;71.04;100750.13;5046174;28;20232;-78
2021/08/18 10:07:30;;;;;;;2.23;1.80;;;;;;;17.53;70.43;100768.25;5045494;28;20210;-77
2021/08/18 10:09:56;;;;;;;1.70;1.60;;;;;;;17.44;70.56;100778.28;5045566;28;20255;-78
2021/08/18 10:12:23;;;;;;;2.87;2.10;;;;;;;17.36;70.57;100764.56;5042800;28;20209;-77
2021/08/18 10:14:49;;;;;;;2.30;2.10;;;;;;;17.21;70.91;100760.78;5039308;28;20282;-76
2021/08/18 10:17:16;;;;;;;3.27;1.90;;;;;;;17.18;71.51;100737.13;5037452;28;20263;-76
2021/08/18 10:19:44;;;;;;;39.43;7.80;;;;;;;17.17;71.54;100726.69;5037671;28;20233;-76
2021/08/18 10:22:11;;;;;;;2.10;1.90;;;;;;;17.21;71.47;100746.72;5036814;28;20202;-76
2021/08/18 10:24:40;;;;;;;1.60;1.50;;;;;;;17.18;71.45;100734.50;5036609;28;20233;-76
2021/08/18 10:27:06;;;;;;;1.87;1.77;;;;;;;17.07;72.28;100702.47;5038608;28;20222;-77
2021/08/18 10:29:36;;;;;;;27.43;5.80;;;;;;;17.16;73.45;100664.28;5044009;28;20259;-78
2021/08/18 10:32:05;;;;;;;2.30;2.10;;;;;;;17.29;73.74;100640.88;5042837;28;20209;-78
2021/08/18 10:34:36;;;;;;;8.33;3.20;;;;;;;17.18;73.05;100678.25;5044472;28;20226;-79
2021/08/18 10:37:06;;;;;;;2.03;1.93;;;;;;;17.24;72.79;100670.06;5041996;28;20213;-77
2021/08/18 10:39:39;;;;;;;3.83;1.70;;;;;;;17.43;71.12;100731.69;5042077;28;20309;-77
2021/08/18 10:42:09;;;;;;;24.20;5.40;;;;;;;17.32;70.76;100748.91;5041810;28;20219;-77
2021/08/18 10:44:41;;;;;;;3.40;2.40;;;;;;;17.52;71.66;100696.16;5042539;28;20218;-77
2021/08/18 10:47:21;;;;;;;1.57;1.30;;;;;;;17.69;71.12;100724.44;5044108;28;20204;-76
2021/08/18 10:49:50;;;;;;;4.60;2.07;;;;;;;17.63;70.75;100735.25;5047901;28;20210;-78
2021/08/18 10:52:55;;;;;;;1.23;1.13;;;;;;;17.60;70.71;100743.28;5042505;28;20217;-77
2021/08/18 10:55:32;;;;;;;1.70;1.57;;;;;;;17.80;70.57;100742.44;5042608;28;20256;-77
2021/08/18 10:58:01;;;;;;;0.90;0.90;;;;;;;17.90;70.49;100753.47;5042633;28;20245;-77
2021/08/18 11:00:38;;;;;;;1.63;1.17;;;;;;;17.53;70.77;100750.63;5042332;28;20349;-77
2021/08/18 11:03:06;;;;;;;1.03;1.00;;;;;;;17.56;70.32;100770.75;5041657;28;20282;-77
2021/08/18 11:05:49;;;;;;;3.97;1.67;;;;;;;17.49;70.57;100758.75;5043807;28;20202;-77
2021/08/18 11:08:18;;;;;;;1.37;1.23;;;;;;;17.52;70.89;100746.28;5039891;28;20257;-77
2021/08/18 11:11:20;;;;;;;1.57;1.47;;;;;;;17.63;70.65;100728.19;5042034;28;20239;-77
2021/08/18 11:13:51;;;;;;;1.10;1.10;;;;;;;17.85;69.25;100788.03;5037935;28;20325;-77
2021/08/18 11:16:23;;;;;;;2.13;1.10;;;;;;;17.93;69.71;100770.06;5042694;28;20203;-77
2021/08/18 11:18:52;;;;;;;0.93;0.93;;;;;;;17.75;68.95;100807.81;5043785;28;20232;-77
2021/08/18 11:21:21;;;;;;;1.10;0.90;;;;;;;17.70;69.35;100788.66;5042806;28;20250;-76
2021/08/18 11:23:53;;;;;;;3.50;1.10;;;;;;;17.73;69.90;100776.19;5042494;28;21663;-77
2021/08/18 11:26:24;;;;;;;1.13;1.00;;;;;;;17.77;69.96;100768.97;5043242;28;20633;-77
2021/08/18 11:28:56;;;;;;;1.20;1.10;;;;;;;17.72;70.49;100755.09;5041639;28;20205;-77
2021/08/18 11:31:31;;;;;;;1.70;1.60;;;;;;;17.58;70.49;100746.03;5043850;28;20225;-76